createdAt,value
2023-02-18T00:01:25.298Z,55.80
2023-02-18T00:03:52.609Z,55.00
2023-02-18T00:06:30.831Z,55.31
2023-02-18T00:09:02.074Z,54.29
2023-02-18T00:11:31.006Z,55.19
2023-02-18T00:14:00.738Z,55.94
2023-02-18T00:16:29.105Z,55.48
2023-02-18T00:19:03.941Z,55.38
2023-02-18T00:21:31.123Z,54.74
2023-02-18T00:23:58.076Z,55.02
2023-02-18T00:26:25.058Z,54.07
2023-02-18T00:28:53.108Z,54.43
2023-02-18T00:31:27.744Z,56.04
2023-02-18T00:33:55.014Z,55.10
2023-02-18T00:36:22.756Z,54.89
2023-02-18T00:38:58.152Z,54.91
2023-02-18T00:41:28.111Z,54.64
2023-02-18T00:43:55.023Z,56.11
2023-02-18T00:47:32.082Z,54.95
2023-02-18T00:50:00.262Z,54.46
2023-02-18T00:52:27.298Z,54.48
2023-02-18T00:54:54.267Z,53.77
2023-02-18T00:57:21.159Z,53.37
2023-02-18T00:59:49.568Z,54.48
2023-02-18T01:02:16.523Z,54.59
2023-02-18T01:04:43.512Z,54.46
2023-02-18T01:07:11.716Z,53.30
2023-02-18T01:09:38.629Z,53.38
2023-02-18T01:12:07.548Z,53.26
2023-02-18T01:14:34.747Z,52.43
2023-02-18T01:17:01.675Z,52.79
2023-02-18T01:19:28.588Z,52.37
2023-02-18T01:21:55.516Z,52.68
2023-02-18T01:24:22.584Z,52.64
2023-02-18T01:26:50.007Z,53.36
2023-02-18T01:29:17.072Z,52.78
2023-02-18T01:31:44.143Z,52.24
2023-02-18T01:34:11.160Z,52.54
2023-02-18T01:36:38.167Z,52.41
2023-02-18T01:39:06.214Z,52.30
2023-02-18T01:41:33.449Z,53.33
2023-02-18T01:44:34.440Z,54.16
2023-02-18T01:47:01.398Z,54.39
2023-02-18T01:49:36.270Z,53.96
2023-02-18T01:52:11.460Z,53.78
2023-02-18T01:54:47.809Z,52.83
2023-02-18T01:57:29.900Z,52.50
2023-02-18T02:00:00.421Z,53.04
2023-02-18T02:02:33.543Z,54.03
2023-02-18T02:05:00.470Z,52.95
2023-02-18T02:07:29.190Z,52.58
2023-02-18T02:09:59.879Z,52.48
2023-02-18T02:12:47.525Z,54.36
2023-02-18T02:15:40.208Z,53.82
2023-02-18T02:18:30.155Z,53.71
2023-02-18T02:21:11.942Z,53.82
2023-02-18T02:23:44.193Z,53.07
2023-02-18T02:26:32.633Z,52.48
2023-02-18T02:29:33.005Z,52.39
2023-02-18T02:33:08.683Z,52.13
2023-02-18T02:35:53.813Z,52.18
2023-02-18T02:38:29.736Z,52.01
2023-02-18T02:41:02.860Z,51.78
2023-02-18T02:44:06.257Z,52.54
2023-02-18T02:46:44.292Z,53.39
2023-02-18T02:49:18.521Z,53.41
2023-02-18T02:51:57.215Z,53.56
2023-02-18T02:54:26.989Z,52.89
2023-02-18T02:57:24.175Z,53.44
2023-02-18T03:00:13.067Z,53.43
2023-02-18T03:03:17.247Z,52.26
2023-02-18T03:06:05.906Z,51.77
2023-02-18T03:08:50.582Z,51.87
2023-02-18T03:11:18.751Z,51.76
2023-02-18T03:14:05.751Z,51.95
2023-02-18T03:16:58.048Z,52.20
2023-02-18T03:19:38.665Z,51.82
2023-02-18T03:22:13.194Z,51.71
2023-02-18T03:24:44.321Z,52.20
2023-02-18T03:27:43.970Z,52.81
2023-02-18T03:30:21.583Z,54.40
2023-02-18T03:32:53.790Z,54.08
2023-02-18T03:35:21.300Z,54.13
2023-02-18T03:38:01.059Z,54.78
2023-02-18T03:40:31.628Z,55.04
2023-02-18T03:43:01.288Z,55.29
2023-02-18T03:45:29.181Z,54.11
2023-02-18T03:47:56.428Z,53.04
2023-02-18T03:50:24.258Z,52.53
2023-02-18T03:52:51.325Z,51.95
2023-02-18T03:55:18.401Z,51.77
2023-02-18T03:57:45.359Z,51.15
2023-02-18T04:00:12.855Z,51.09
2023-02-18T04:02:42.873Z,51.31
2023-02-18T04:05:10.840Z,51.91
2023-02-18T04:07:38.179Z,53.19
2023-02-18T04:10:06.855Z,53.21
2023-02-18T04:12:33.933Z,52.71
2023-02-18T04:15:00.884Z,51.94
2023-02-18T04:17:27.885Z,51.48
2023-02-18T04:19:54.790Z,50.48
2023-02-18T04:22:21.708Z,50.68
2023-02-18T04:24:48.816Z,51.05
2023-02-18T04:27:15.749Z,49.66
2023-02-18T04:29:42.820Z,48.52
2023-02-18T04:32:09.829Z,48.00
2023-02-18T04:34:52.055Z,47.77
2023-02-18T04:37:18.982Z,48.11
2023-02-18T04:39:46.001Z,48.05
2023-02-18T04:42:12.982Z,47.96
2023-02-18T04:44:39.954Z,47.48
2023-02-18T04:47:07.560Z,47.80
2023-02-18T04:50:07.106Z,48.06
2023-02-18T04:52:34.148Z,48.11
2023-02-18T04:55:01.034Z,47.24
2023-02-18T04:57:27.933Z,46.66
2023-02-18T04:59:54.855Z,47.33
2023-02-18T05:02:21.775Z,47.57
2023-02-18T05:04:48.669Z,47.22
2023-02-18T05:07:15.627Z,46.59
2023-02-18T05:09:42.489Z,46.49
2023-02-18T05:12:09.468Z,45.30
2023-02-18T05:14:36.388Z,45.86
2023-02-18T05:17:03.498Z,45.95
2023-02-18T05:19:30.410Z,45.62
2023-02-18T05:21:57.299Z,45.34
2023-02-18T05:24:24.498Z,44.77
2023-02-18T05:26:51.491Z,45.78
2023-02-18T05:29:18.473Z,45.09
2023-02-18T05:31:45.481Z,46.01
2023-02-18T05:34:12.496Z,45.29
2023-02-18T05:36:39.381Z,45.15
2023-02-18T05:39:06.534Z,45.27
2023-02-18T05:41:33.608Z,45.64
2023-02-18T05:44:19.003Z,45.37
2023-02-18T05:46:46.105Z,45.26
2023-02-18T05:49:13.020Z,45.37
2023-02-18T05:51:39.957Z,44.71
2023-02-18T05:54:06.837Z,45.46
2023-02-18T05:56:33.778Z,45.58
2023-02-18T05:59:00.722Z,45.86
2023-02-18T06:01:27.703Z,44.79
2023-02-18T06:03:54.649Z,44.56
2023-02-18T06:06:21.620Z,44.42
2023-02-18T06:08:48.552Z,45.68
2023-02-18T06:11:15.446Z,45.24
2023-02-18T06:13:42.393Z,44.89
2023-02-18T06:16:09.671Z,44.32
2023-02-18T06:18:37.086Z,44.30
2023-02-18T06:21:04.329Z,44.84
2023-02-18T06:23:31.246Z,44.46
2023-02-18T06:25:58.124Z,44.25
2023-02-18T06:28:25.266Z,43.25
2023-02-18T06:30:52.245Z,43.58
2023-02-18T06:33:19.217Z,42.88
2023-02-18T06:35:58.238Z,42.67
2023-02-18T06:38:25.621Z,43.04
2023-02-18T06:40:52.849Z,42.16
2023-02-18T06:43:20.644Z,42.46
2023-02-18T06:45:47.597Z,41.56
2023-02-18T06:48:14.548Z,42.14
2023-02-18T06:50:43.063Z,42.58
2023-02-18T06:53:10.650Z,41.89
2023-02-18T06:55:37.934Z,41.58
2023-02-18T06:58:05.350Z,41.78
2023-02-18T07:00:32.498Z,41.82
2023-02-18T07:02:59.571Z,41.57
2023-02-18T07:05:26.552Z,41.97
2023-02-18T07:07:53.565Z,42.08
2023-02-18T07:10:20.743Z,41.91
2023-02-18T07:12:47.975Z,41.03
2023-02-18T07:15:15.491Z,41.04
2023-02-18T07:17:42.435Z,41.51
2023-02-18T07:20:09.990Z,40.91
2023-02-18T07:22:36.915Z,41.09
2023-02-18T07:25:04.231Z,40.96
2023-02-18T07:27:31.162Z,40.67
2023-02-18T07:29:58.243Z,40.33
2023-02-18T07:32:25.402Z,41.46
2023-02-18T07:34:53.029Z,43.08
2023-02-18T07:37:20.777Z,43.65
2023-02-18T07:39:47.690Z,45.29
2023-02-18T07:42:14.730Z,44.35
2023-02-18T07:44:42.243Z,43.92
2023-02-18T07:47:17.290Z,44.39
2023-02-18T07:49:44.188Z,44.03
2023-02-18T07:52:11.100Z,43.72
2023-02-18T07:54:38.185Z,43.44
2023-02-18T07:57:05.060Z,43.02
2023-02-18T07:59:31.997Z,42.10
2023-02-18T08:01:58.966Z,41.88
2023-02-18T08:04:25.949Z,41.55
2023-02-18T08:06:52.870Z,40.94
2023-02-18T08:09:19.807Z,41.07
2023-02-18T08:11:46.800Z,40.98
2023-02-18T08:14:14.080Z,41.03
2023-02-18T08:16:41.230Z,40.77
2023-02-18T08:19:08.734Z,40.66
2023-02-18T08:21:35.733Z,40.61
2023-02-18T08:24:02.648Z,41.46
2023-02-18T08:26:29.970Z,41.54
2023-02-18T08:28:56.934Z,40.77
2023-02-18T08:31:26.714Z,40.49
2023-02-18T08:33:55.588Z,40.16
2023-02-18T08:36:23.679Z,39.61
2023-02-18T08:38:50.961Z,39.38
2023-02-18T08:41:21.202Z,40.48
2023-02-18T08:43:48.346Z,40.15
2023-02-18T08:46:16.639Z,40.20
2023-02-18T08:48:52.269Z,40.49
2023-02-18T08:51:21.526Z,39.01
2023-02-18T08:53:49.670Z,39.14
2023-02-18T08:56:17.840Z,37.87
2023-02-18T08:58:45.053Z,38.85
2023-02-18T09:01:13.885Z,39.42
2023-02-18T09:03:41.148Z,39.75
2023-02-18T09:06:08.957Z,38.60
2023-02-18T09:08:35.921Z,38.73
2023-02-18T09:11:04.920Z,38.55
2023-02-18T09:13:33.352Z,38.61
2023-02-18T09:16:04.477Z,38.76
2023-02-18T09:18:32.748Z,38.98
2023-02-18T09:21:01.127Z,38.48
2023-02-18T09:23:30.525Z,38.65
2023-02-18T09:25:57.683Z,39.08
2023-02-18T09:28:25.243Z,39.58
2023-02-18T09:30:52.362Z,39.52
2023-02-18T09:33:19.435Z,39.34
2023-02-18T09:35:47.238Z,39.77
2023-02-18T09:38:17.356Z,39.67
2023-02-18T09:40:48.777Z,39.91
2023-02-18T09:43:28.071Z,40.43
2023-02-18T10:17:33.597Z,41.42
2023-02-18T10:20:02.339Z,40.76
2023-02-18T10:22:31.708Z,40.59
2023-02-18T10:25:02.613Z,40.31
2023-02-18T10:27:35.694Z,40.23
2023-02-18T10:30:37.968Z,40.91
2023-02-18T10:33:32.174Z,40.53
2023-02-18T10:36:25.254Z,40.82
2023-02-18T10:39:07.475Z,40.25
2023-02-18T10:41:52.785Z,40.59
2023-02-18T10:44:19.755Z,41.49
2023-02-18T10:47:28.458Z,43.01
2023-02-18T10:50:02.238Z,42.54
2023-02-18T10:52:37.452Z,42.39
2023-02-18T10:55:13.185Z,42.20
2023-02-18T10:57:47.461Z,43.01
2023-02-18T11:00:19.635Z,43.55
2023-02-18T11:02:46.764Z,42.70
2023-02-18T11:05:28.151Z,42.84
2023-02-18T11:07:58.326Z,42.74
2023-02-18T11:10:33.167Z,42.19
2023-02-18T11:13:06.122Z,42.77
2023-02-18T11:15:33.312Z,43.83
2023-02-18T11:18:30.292Z,42.81
2023-02-18T11:21:00.179Z,42.90
2023-02-18T11:23:27.217Z,43.06
2023-02-18T11:26:03.573Z,43.21
2023-02-18T11:28:44.971Z,43.98
2023-02-18T11:31:24.852Z,43.75
2023-02-18T11:33:58.649Z,43.09
2023-02-18T11:36:35.139Z,43.05
2023-02-18T11:39:13.236Z,43.33
2023-02-18T11:41:43.660Z,43.19
2023-02-18T11:44:34.341Z,43.64
2023-02-18T11:47:04.201Z,42.61
2023-02-18T11:49:34.139Z,42.58
2023-02-18T11:52:41.485Z,43.67
2023-02-18T11:55:23.306Z,42.79
2023-02-18T11:58:03.811Z,42.97
2023-02-18T12:00:43.077Z,42.90
2023-02-18T12:03:39.015Z,42.71
2023-02-18T12:06:32.912Z,43.36
2023-02-18T12:09:21.091Z,42.64
2023-02-18T12:12:16.223Z,43.24
2023-02-18T12:14:44.553Z,43.94
2023-02-18T12:17:14.527Z,43.38
2023-02-18T12:20:03.162Z,42.30
2023-02-18T12:22:56.821Z,43.08
2023-02-18T12:25:45.089Z,43.62
2023-02-18T12:28:26.801Z,43.76
2023-02-18T12:31:02.769Z,43.82
2023-02-18T12:34:17.186Z,43.91
2023-02-18T12:37:02.906Z,43.42
2023-02-18T12:40:02.935Z,44.43
2023-02-18T12:42:44.764Z,44.03
2023-02-18T12:45:33.058Z,44.56
2023-02-18T12:48:08.676Z,44.68
2023-02-18T12:50:45.826Z,44.79
2023-02-18T12:53:46.750Z,44.45
2023-02-18T12:56:33.854Z,45.22
2023-02-18T12:59:08.901Z,45.47
2023-02-18T13:02:09.617Z,46.35
2023-02-18T13:04:51.772Z,45.93
2023-02-18T13:07:33.018Z,46.09
2023-02-18T13:10:07.075Z,46.42
2023-02-18T13:12:46.185Z,46.29
2023-02-18T13:15:37.240Z,46.43
2023-02-18T13:18:11.719Z,46.61
2023-02-18T13:20:41.345Z,46.85
2023-02-18T13:23:17.777Z,46.30
2023-02-18T13:25:45.675Z,46.60
2023-02-18T13:28:12.559Z,47.37
2023-02-18T13:31:13.080Z,47.67
2023-02-18T13:33:46.104Z,48.26
2023-02-18T13:36:42.015Z,48.05
2023-02-18T13:39:20.521Z,47.85
2023-02-18T13:41:49.981Z,47.74
2023-02-18T13:44:22.640Z,48.32
2023-02-18T13:46:52.645Z,48.12
2023-02-18T13:49:41.148Z,48.60
2023-02-18T13:52:19.973Z,48.82
2023-02-18T13:54:49.159Z,49.03
2023-02-18T13:57:22.304Z,49.05
2023-02-18T13:59:52.838Z,49.58
2023-02-18T14:02:19.802Z,49.30
2023-02-18T14:04:46.730Z,49.67
2023-02-18T14:07:41.622Z,49.73
2023-02-18T14:10:17.210Z,49.11
2023-02-18T14:13:03.630Z,49.56
2023-02-18T14:15:30.667Z,49.71
2023-02-18T14:18:21.784Z,50.28
2023-02-18T14:20:53.028Z,49.87
2023-02-18T14:23:22.590Z,49.88
2023-02-18T14:26:04.315Z,50.65
2023-02-18T14:28:34.249Z,50.02
2023-02-18T14:31:13.846Z,51.00
2023-02-18T14:33:48.743Z,50.19
2023-02-18T14:36:15.634Z,50.09
2023-02-18T14:38:48.207Z,49.76
2023-02-18T14:41:30.332Z,50.17
2023-02-18T14:44:31.166Z,50.34
2023-02-18T14:47:38.413Z,50.58
2023-02-18T14:50:12.847Z,50.72
2023-02-18T14:52:49.569Z,50.40
2023-02-18T14:55:29.116Z,50.75
2023-02-18T14:58:00.602Z,50.91
2023-02-18T15:00:32.191Z,51.03
2023-02-18T15:03:01.587Z,51.88
2023-02-18T15:05:31.746Z,51.70
2023-02-18T15:08:04.359Z,52.15
2023-02-18T15:10:42.135Z,51.77
2023-02-18T15:13:26.911Z,52.49
2023-02-18T15:15:57.878Z,52.15
2023-02-18T15:18:36.418Z,52.17
2023-02-18T15:21:08.919Z,51.97
2023-02-18T15:23:40.990Z,51.70
2023-02-18T15:26:13.424Z,51.95
2023-02-18T15:28:58.364Z,51.85
2023-02-18T15:31:27.368Z,51.90
2023-02-18T15:33:54.463Z,52.03
2023-02-18T15:36:21.342Z,52.74
2023-02-18T15:38:48.311Z,52.65
2023-02-18T15:41:19.262Z,52.39
2023-02-18T15:44:02.073Z,52.67
2023-02-18T15:46:29.698Z,52.89
2023-02-18T15:48:57.691Z,53.36
2023-02-18T15:51:34.202Z,52.86
2023-02-18T15:54:03.011Z,53.03
2023-02-18T15:56:38.033Z,53.05
2023-02-18T15:59:16.949Z,53.04
2023-02-18T16:01:49.794Z,53.49
2023-02-18T16:04:16.934Z,53.48
2023-02-18T16:06:50.455Z,53.21
2023-02-18T16:09:27.384Z,53.01
2023-02-18T16:12:02.205Z,52.74
2023-02-18T16:14:46.791Z,52.58
2023-02-18T16:17:18.008Z,52.82
2023-02-18T16:20:03.432Z,53.57
2023-02-18T16:22:31.500Z,53.33
2023-02-18T16:25:01.158Z,52.50
2023-02-18T16:27:33.778Z,53.09
2023-02-18T16:30:07.758Z,52.86
2023-02-18T16:32:34.832Z,53.04
2023-02-18T16:35:03.651Z,52.83
2023-02-18T16:37:39.999Z,53.14
2023-02-18T16:40:24.112Z,53.43
2023-02-18T16:42:51.936Z,53.45
2023-02-18T16:45:20.452Z,53.25
2023-02-18T16:47:49.272Z,53.50
2023-02-18T16:50:21.858Z,53.62
2023-02-18T16:52:50.104Z,53.32
2023-02-18T16:55:27.352Z,53.02
2023-02-18T16:57:54.997Z,53.47
2023-02-18T17:00:22.861Z,53.21
2023-02-18T17:02:53.279Z,52.85
2023-02-18T17:05:26.807Z,53.39
2023-02-18T17:07:54.965Z,53.41
2023-02-18T17:10:22.114Z,53.29
2023-02-18T17:12:49.387Z,53.72
2023-02-18T17:15:23.947Z,53.78
2023-02-18T17:17:50.904Z,53.37
2023-02-18T17:20:19.078Z,54.35
2023-02-18T17:22:46.162Z,54.63
2023-02-18T17:25:21.190Z,54.12
2023-02-18T17:27:48.201Z,54.23
2023-02-18T17:30:15.735Z,54.28
2023-02-18T17:32:44.528Z,53.97
2023-02-18T17:35:17.310Z,54.52
2023-02-18T17:37:44.246Z,54.77
2023-02-18T17:40:29.550Z,54.95
2023-02-18T17:42:57.321Z,55.08
2023-02-18T17:45:35.639Z,55.78
2023-02-18T17:48:03.828Z,55.12
2023-02-18T17:50:32.044Z,56.01
2023-02-18T17:52:59.254Z,56.61
2023-02-18T17:55:30.386Z,55.54
2023-02-18T17:57:58.062Z,55.58
2023-02-18T18:00:34.471Z,54.91
2023-02-18T18:03:02.323Z,55.76
2023-02-18T18:05:33.352Z,55.89
2023-02-18T18:08:02.195Z,56.39
2023-02-18T18:10:32.481Z,56.58
2023-02-18T18:13:01.456Z,56.01
2023-02-18T18:15:28.355Z,56.43
2023-02-18T18:17:56.616Z,57.14
2023-02-18T18:20:26.203Z,57.94
2023-02-18T18:22:55.076Z,58.12
2023-02-18T18:25:21.904Z,57.94
2023-02-18T18:27:50.608Z,57.33
2023-02-18T18:30:19.395Z,57.38
2023-02-18T18:32:46.584Z,57.18
2023-02-18T18:35:36.069Z,57.67
2023-02-18T18:38:03.319Z,57.24
2023-02-18T18:40:32.685Z,56.91
2023-02-18T18:43:01.701Z,57.15
2023-02-18T18:45:37.298Z,56.63
2023-02-18T18:48:06.349Z,56.40
2023-02-18T18:50:42.019Z,56.92
2023-02-18T18:53:30.171Z,56.72
2023-02-18T18:56:06.226Z,56.13
2023-02-18T18:58:33.450Z,56.43
2023-02-18T19:01:03.150Z,56.84
2023-02-18T19:03:31.093Z,56.24
2023-02-18T19:05:58.313Z,56.52
2023-02-18T19:08:25.692Z,56.91
2023-02-18T19:10:55.314Z,57.42
2023-02-18T19:13:30.690Z,57.85
2023-02-18T19:16:05.878Z,58.34
2023-02-18T19:18:33.826Z,59.29
2023-02-18T19:21:04.898Z,59.80
2023-02-18T19:23:34.025Z,59.45
2023-02-18T19:26:01.239Z,60.21
2023-02-18T19:28:28.858Z,59.90
2023-02-18T19:30:55.942Z,60.25
2023-02-18T19:33:23.017Z,60.65
2023-02-18T19:35:50.030Z,60.97
2023-02-18T19:38:18.799Z,60.96
2023-02-18T19:40:46.722Z,60.40
2023-02-18T19:43:14.209Z,60.30
2023-02-18T19:45:46.455Z,60.51
2023-02-18T19:48:15.424Z,60.40
2023-02-18T19:50:43.557Z,60.73
2023-02-18T19:53:11.327Z,60.73
2023-02-18T19:55:39.065Z,60.67
2023-02-18T19:58:06.982Z,61.00
2023-02-18T20:00:34.001Z,60.53
2023-02-18T20:03:00.986Z,60.86
2023-02-18T20:05:27.930Z,60.57
2023-02-18T20:07:54.895Z,60.48
2023-02-18T20:10:22.249Z,60.15
2023-02-18T20:12:54.317Z,60.06
2023-02-18T20:15:22.289Z,59.53
2023-02-18T20:17:49.982Z,59.90
2023-02-18T20:20:18.473Z,60.10
2023-02-18T20:22:46.067Z,59.49
2023-02-18T20:25:13.031Z,59.51
2023-02-18T20:27:54.504Z,59.07
2023-02-18T20:30:26.676Z,58.96
2023-02-18T20:32:53.691Z,59.59
2023-02-18T20:35:20.623Z,59.96
2023-02-18T20:37:47.521Z,60.21
2023-02-18T20:40:14.689Z,60.14
2023-02-18T20:42:42.232Z,59.51
2023-02-18T20:45:09.793Z,59.54
2023-02-18T20:47:36.898Z,59.67
2023-02-18T20:50:04.355Z,60.22
2023-02-18T20:52:33.627Z,59.75
2023-02-18T20:55:01.742Z,59.68
2023-02-18T20:57:28.688Z,60.50
2023-02-18T20:59:55.574Z,60.10
2023-02-18T21:02:22.491Z,60.26
2023-02-18T21:04:49.443Z,60.31
2023-02-18T21:07:16.340Z,60.53
2023-02-18T21:09:43.326Z,60.47
2023-02-18T21:12:11.112Z,59.73
2023-02-18T21:14:38.029Z,60.00
2023-02-18T21:17:05.055Z,59.74
2023-02-18T21:19:32.247Z,60.68
2023-02-18T21:22:00.197Z,60.91
2023-02-18T21:24:27.759Z,60.61
2023-02-18T21:26:54.714Z,60.50
2023-02-18T21:29:21.608Z,61.07
2023-02-18T21:31:48.616Z,61.10
2023-02-18T21:34:16.238Z,61.57
2023-02-18T21:36:43.768Z,61.63
2023-02-18T21:39:11.451Z,61.80
2023-02-18T21:41:41.002Z,62.09
2023-02-18T21:44:09.215Z,61.96
2023-02-18T21:46:37.160Z,62.25
2023-02-18T21:49:06.101Z,62.60
2023-02-18T21:51:58.746Z,62.48
2023-02-18T21:54:36.152Z,62.84
2023-02-18T21:57:05.100Z,62.20
2023-02-18T21:59:34.284Z,62.02
2023-02-18T22:02:02.432Z,62.55
2023-02-18T22:04:31.545Z,62.25
2023-02-18T22:06:58.808Z,61.94
2023-02-18T22:09:26.566Z,61.91
2023-02-18T22:11:53.961Z,62.37
2023-02-18T22:14:21.569Z,61.77
2023-02-18T22:16:48.998Z,62.18
2023-02-18T22:19:15.912Z,62.26
2023-02-18T22:21:43.183Z,62.96
2023-02-18T22:28:32.757Z,62.52
2023-02-18T22:31:00.012Z,62.72
2023-02-18T22:33:27.543Z,63.58
2023-02-18T22:35:54.446Z,63.81
2023-02-18T22:38:21.344Z,63.54
2023-02-18T22:40:50.699Z,63.81
2023-02-18T22:43:18.067Z,63.74
2023-02-18T22:45:45.154Z,63.87
2023-02-18T22:48:12.104Z,63.74
2023-02-18T22:50:39.008Z,63.43
2023-02-18T22:53:05.931Z,63.52
2023-02-18T22:55:32.836Z,63.27
2023-02-18T22:57:59.764Z,62.92
2023-02-18T23:00:26.788Z,62.73
2023-02-18T23:02:53.855Z,63.26
2023-02-18T23:05:20.844Z,63.15
2023-02-18T23:07:47.738Z,62.83
2023-02-18T23:10:16.144Z,62.47
2023-02-18T23:12:43.036Z,61.64
2023-02-18T23:15:09.952Z,61.84
2023-02-18T23:17:36.827Z,62.70
2023-02-18T23:20:04.349Z,62.59
2023-02-18T23:22:33.696Z,62.06
2023-02-18T23:25:01.861Z,62.33
2023-02-18T23:27:29.606Z,61.94
2023-02-18T23:29:56.769Z,62.00
2023-02-18T23:32:24.482Z,62.95
2023-02-18T23:34:52.120Z,63.41
2023-02-18T23:37:39.523Z,62.99
2023-02-18T23:40:06.933Z,62.16
2023-02-18T23:42:33.846Z,62.40
2023-02-18T23:45:00.749Z,61.59
2023-02-18T23:47:27.650Z,62.19
2023-02-18T23:49:54.539Z,62.23
2023-02-18T23:52:21.442Z,61.51
2023-02-18T23:54:48.330Z,61.18
2023-02-18T23:57:15.210Z,61.71
2023-02-18T23:59:42.308Z,61.23
